sensor_id;sensor_type;location;lat;lon;timestamp;P1;durP1;ratioP1;P2;durP2;ratioP2
3881;SDS011;1956;53.482;10.238;2022-07-03T00:04:52;4.30;;;2.33;;
3881;SDS011;1956;53.482;10.238;2022-07-03T00:09:52;2.57;;;2.30;;
3881;SDS011;1956;53.482;10.238;2022-07-03T00:14:52;4.63;;;2.60;;
3881;SDS011;1956;53.482;10.238;2022-07-03T00:19:53;2.70;;;1.87;;
3881;SDS011;1956;53.482;10.238;2022-07-03T00:24:58;6.33;;;2.27;;
3881;SDS011;1956;53.482;10.238;2022-07-03T00:30:02;2.33;;;2.13;;
3881;SDS011;1956;53.482;10.238;2022-07-03T00:35:04;5.50;;;2.37;;
3881;SDS011;1956;53.482;10.238;2022-07-03T00:40:05;3.10;;;2.23;;
3881;SDS011;1956;53.482;10.238;2022-07-03T00:45:06;4.13;;;1.87;;
3881;SDS011;1956;53.482;10.238;2022-07-03T00:50:08;3.87;;;2.40;;
3881;SDS011;1956;53.482;10.238;2022-07-03T00:55:10;5.47;;;2.13;;
3881;SDS011;1956;53.482;10.238;2022-07-03T01:00:15;3.43;;;2.03;;
3881;SDS011;1956;53.482;10.238;2022-07-03T01:05:26;1.87;;;1.73;;
3881;SDS011;1956;53.482;10.238;2022-07-03T01:10:36;4.00;;;2.27;;
3881;SDS011;1956;53.482;10.238;2022-07-03T01:15:45;2.70;;;2.03;;
3881;SDS011;1956;53.482;10.238;2022-07-03T01:20:59;2.10;;;1.90;;
3881;SDS011;1956;53.482;10.238;2022-07-03T01:26:07;2.93;;;2.13;;
3881;SDS011;1956;53.482;10.238;2022-07-03T01:31:08;2.17;;;1.97;;
3881;SDS011;1956;53.482;10.238;2022-07-03T01:36:10;13.23;;;2.63;;
3881;SDS011;1956;53.482;10.238;2022-07-03T01:41:13;2.90;;;2.40;;
3881;SDS011;1956;53.482;10.238;2022-07-03T01:46:15;2.60;;;2.30;;
3881;SDS011;1956;53.482;10.238;2022-07-03T01:51:17;3.70;;;2.37;;
3881;SDS011;1956;53.482;10.238;2022-07-03T01:56:18;3.03;;;2.00;;
3881;SDS011;1956;53.482;10.238;2022-07-03T02:01:29;2.10;;;1.90;;
3881;SDS011;1956;53.482;10.238;2022-07-03T02:07:17;9.17;;;1.77;;
3881;SDS011;1956;53.482;10.238;2022-07-03T02:12:02;2.03;;;1.93;;
3881;SDS011;1956;53.482;10.238;2022-07-03T02:17:15;3.20;;;1.87;;
3881;SDS011;1956;53.482;10.238;2022-07-03T02:22:18;4.07;;;2.17;;
3881;SDS011;1956;53.482;10.238;2022-07-03T02:27:22;3.80;;;2.23;;
3881;SDS011;1956;53.482;10.238;2022-07-03T02:32:23;3.70;;;1.90;;
3881;SDS011;1956;53.482;10.238;2022-07-03T02:37:27;3.43;;;2.10;;
3881;SDS011;1956;53.482;10.238;2022-07-03T02:42:34;3.67;;;2.50;;
3881;SDS011;1956;53.482;10.238;2022-07-03T02:48:07;3.43;;;2.40;;
3881;SDS011;1956;53.482;10.238;2022-07-03T02:53:21;4.40;;;2.60;;
3881;SDS011;1956;53.482;10.238;2022-07-03T03:04:32;2.40;;;2.20;;
3881;SDS011;1956;53.482;10.238;2022-07-03T03:09:35;4.90;;;2.30;;
3881;SDS011;1956;53.482;10.238;2022-07-03T03:14:41;3.10;;;2.27;;
3881;SDS011;1956;53.482;10.238;2022-07-03T03:19:46;2.53;;;2.30;;
3881;SDS011;1956;53.482;10.238;2022-07-03T03:24:52;4.67;;;2.00;;
3881;SDS011;1956;53.482;10.238;2022-07-03T03:29:53;2.70;;;2.20;;
3881;SDS011;1956;53.482;10.238;2022-07-03T03:34:53;2.80;;;2.10;;
3881;SDS011;1956;53.482;10.238;2022-07-03T03:39:54;4.43;;;2.10;;
3881;SDS011;1956;53.482;10.238;2022-07-03T03:44:54;3.10;;;2.23;;
3881;SDS011;1956;53.482;10.238;2022-07-03T03:49:55;3.93;;;2.33;;
3881;SDS011;1956;53.482;10.238;2022-07-03T03:54:55;4.00;;;2.00;;
3881;SDS011;1956;53.482;10.238;2022-07-03T03:59:56;2.53;;;2.33;;
3881;SDS011;1956;53.482;10.238;2022-07-03T04:04:56;3.60;;;3.00;;
3881;SDS011;1956;53.482;10.238;2022-07-03T04:09:57;4.33;;;2.47;;
3881;SDS011;1956;53.482;10.238;2022-07-03T04:14:58;4.40;;;2.63;;
3881;SDS011;1956;53.482;10.238;2022-07-03T04:19:59;5.47;;;2.30;;
3881;SDS011;1956;53.482;10.238;2022-07-03T04:24:59;3.17;;;2.50;;
3881;SDS011;1956;53.482;10.238;2022-07-03T04:29:59;9.13;;;2.87;;
3881;SDS011;1956;53.482;10.238;2022-07-03T04:35:00;2.87;;;2.60;;
3881;SDS011;1956;53.482;10.238;2022-07-03T04:40:00;3.80;;;2.70;;
3881;SDS011;1956;53.482;10.238;2022-07-03T04:45:01;2.57;;;2.20;;
3881;SDS011;1956;53.482;10.238;2022-07-03T04:50:02;4.60;;;2.83;;
3881;SDS011;1956;53.482;10.238;2022-07-03T04:55:03;3.60;;;2.37;;
3881;SDS011;1956;53.482;10.238;2022-07-03T05:00:04;4.03;;;2.70;;
3881;SDS011;1956;53.482;10.238;2022-07-03T05:05:06;3.87;;;2.40;;
3881;SDS011;1956;53.482;10.238;2022-07-03T05:10:07;3.30;;;2.63;;
3881;SDS011;1956;53.482;10.238;2022-07-03T05:15:08;3.17;;;2.37;;
3881;SDS011;1956;53.482;10.238;2022-07-03T05:20:09;2.90;;;2.60;;
3881;SDS011;1956;53.482;10.238;2022-07-03T05:25:25;3.00;;;2.80;;
3881;SDS011;1956;53.482;10.238;2022-07-03T05:30:26;2.43;;;2.27;;
3881;SDS011;1956;53.482;10.238;2022-07-03T05:35:26;3.17;;;2.30;;
3881;SDS011;1956;53.482;10.238;2022-07-03T05:40:27;3.33;;;2.90;;
3881;SDS011;1956;53.482;10.238;2022-07-03T05:45:27;2.57;;;2.37;;
3881;SDS011;1956;53.482;10.238;2022-07-03T05:50:28;2.70;;;2.30;;
3881;SDS011;1956;53.482;10.238;2022-07-03T05:55:28;4.10;;;2.83;;
3881;SDS011;1956;53.482;10.238;2022-07-03T06:00:29;5.90;;;2.80;;
3881;SDS011;1956;53.482;10.238;2022-07-03T06:05:29;2.80;;;2.60;;
3881;SDS011;1956;53.482;10.238;2022-07-03T06:10:30;3.27;;;2.70;;
3881;SDS011;1956;53.482;10.238;2022-07-03T06:15:30;4.83;;;2.93;;
3881;SDS011;1956;53.482;10.238;2022-07-03T06:20:30;2.73;;;2.43;;
3881;SDS011;1956;53.482;10.238;2022-07-03T06:25:31;6.00;;;2.93;;
3881;SDS011;1956;53.482;10.238;2022-07-03T06:30:31;2.83;;;2.53;;
3881;SDS011;1956;53.482;10.238;2022-07-03T06:35:32;4.50;;;2.53;;
3881;SDS011;1956;53.482;10.238;2022-07-03T06:40:32;4.63;;;2.57;;
3881;SDS011;1956;53.482;10.238;2022-07-03T06:45:33;3.10;;;2.80;;
3881;SDS011;1956;53.482;10.238;2022-07-03T06:50:33;5.90;;;2.73;;
3881;SDS011;1956;53.482;10.238;2022-07-03T06:55:33;5.03;;;2.53;;
3881;SDS011;1956;53.482;10.238;2022-07-03T07:00:34;2.70;;;2.17;;
3881;SDS011;1956;53.482;10.238;2022-07-03T07:05:36;4.93;;;2.33;;
3881;SDS011;1956;53.482;10.238;2022-07-03T07:10:36;7.10;;;2.53;;
3881;SDS011;1956;53.482;10.238;2022-07-03T07:15:37;10.10;;;2.50;;
3881;SDS011;1956;53.482;10.238;2022-07-03T07:20:37;2.70;;;2.10;;
3881;SDS011;1956;53.482;10.238;2022-07-03T07:25:37;4.90;;;2.40;;
3881;SDS011;1956;53.482;10.238;2022-07-03T07:30:38;2.27;;;2.00;;
3881;SDS011;1956;53.482;10.238;2022-07-03T07:35:40;3.53;;;2.40;;
3881;SDS011;1956;53.482;10.238;2022-07-03T07:40:41;2.90;;;2.60;;
3881;SDS011;1956;53.482;10.238;2022-07-03T07:45:42;4.00;;;2.50;;
3881;SDS011;1956;53.482;10.238;2022-07-03T07:50:42;2.63;;;2.43;;
3881;SDS011;1956;53.482;10.238;2022-07-03T07:55:42;5.63;;;2.20;;
3881;SDS011;1956;53.482;10.238;2022-07-03T08:00:43;4.50;;;2.90;;
3881;SDS011;1956;53.482;10.238;2022-07-03T08:06:02;3.53;;;2.50;;
3881;SDS011;1956;53.482;10.238;2022-07-03T08:11:02;4.70;;;2.40;;
3881;SDS011;1956;53.482;10.238;2022-07-03T08:16:03;1.97;;;1.87;;
3881;SDS011;1956;53.482;10.238;2022-07-03T08:21:03;7.00;;;2.10;;
3881;SDS011;1956;53.482;10.238;2022-07-03T08:26:04;2.80;;;2.40;;
3881;SDS011;1956;53.482;10.238;2022-07-03T08:31:04;5.27;;;2.30;;
3881;SDS011;1956;53.482;10.238;2022-07-03T08:36:05;6.93;;;2.57;;
3881;SDS011;1956;53.482;10.238;2022-07-03T08:41:06;5.57;;;2.80;;
3881;SDS011;1956;53.482;10.238;2022-07-03T08:46:06;2.50;;;2.30;;
3881;SDS011;1956;53.482;10.238;2022-07-03T08:51:10;3.10;;;2.70;;
3881;SDS011;1956;53.482;10.238;2022-07-03T08:56:11;2.70;;;2.07;;
3881;SDS011;1956;53.482;10.238;2022-07-03T09:01:14;2.07;;;1.90;;
3881;SDS011;1956;53.482;10.238;2022-07-03T09:06:16;3.73;;;2.10;;
3881;SDS011;1956;53.482;10.238;2022-07-03T09:11:17;3.87;;;2.00;;
3881;SDS011;1956;53.482;10.238;2022-07-03T09:16:17;2.63;;;2.00;;
3881;SDS011;1956;53.482;10.238;2022-07-03T09:21:18;7.30;;;2.47;;
3881;SDS011;1956;53.482;10.238;2022-07-03T09:26:20;5.30;;;2.03;;
3881;SDS011;1956;53.482;10.238;2022-07-03T09:31:26;4.10;;;2.03;;
3881;SDS011;1956;53.482;10.238;2022-07-03T09:36:44;3.20;;;1.63;;
3881;SDS011;1956;53.482;10.238;2022-07-03T09:47:10;5.73;;;2.00;;
3881;SDS011;1956;53.482;10.238;2022-07-03T09:57:59;3.30;;;1.77;;
3881;SDS011;1956;53.482;10.238;2022-07-03T10:03:05;1.90;;;1.67;;
3881;SDS011;1956;53.482;10.238;2022-07-03T10:08:13;1.50;;;1.40;;
3881;SDS011;1956;53.482;10.238;2022-07-03T10:13:19;4.57;;;1.60;;
3881;SDS011;1956;53.482;10.238;2022-07-03T10:18:19;2.43;;;1.73;;
3881;SDS011;1956;53.482;10.238;2022-07-03T10:23:20;1.60;;;1.30;;
3881;SDS011;1956;53.482;10.238;2022-07-03T10:28:22;2.40;;;1.50;;
3881;SDS011;1956;53.482;10.238;2022-07-03T10:33:23;1.80;;;1.40;;
3881;SDS011;1956;53.482;10.238;2022-07-03T10:38:37;2.73;;;1.50;;
3881;SDS011;1956;53.482;10.238;2022-07-03T10:43:43;2.00;;;1.33;;
3881;SDS011;1956;53.482;10.238;2022-07-03T10:49:04;1.80;;;1.40;;
3881;SDS011;1956;53.482;10.238;2022-07-03T10:54:25;2.40;;;1.60;;
3881;SDS011;1956;53.482;10.238;2022-07-03T11:00:16;1.40;;;1.30;;
3881;SDS011;1956;53.482;10.238;2022-07-03T11:10:29;4.20;;;1.20;;
3881;SDS011;1956;53.482;10.238;2022-07-03T11:15:31;1.97;;;1.40;;
3881;SDS011;1956;53.482;10.238;2022-07-03T11:26:28;3.80;;;1.40;;
3881;SDS011;1956;53.482;10.238;2022-07-03T11:31:28;3.20;;;0.90;;
3881;SDS011;1956;53.482;10.238;2022-07-03T11:36:29;6.10;;;1.50;;
3881;SDS011;1956;53.482;10.238;2022-07-03T11:41:43;3.63;;;1.43;;
3881;SDS011;1956;53.482;10.238;2022-07-03T11:46:48;1.57;;;1.27;;
3881;SDS011;1956;53.482;10.238;2022-07-03T11:51:57;2.43;;;1.20;;
3881;SDS011;1956;53.482;10.238;2022-07-03T11:56:59;2.83;;;0.90;;
3881;SDS011;1956;53.482;10.238;2022-07-03T12:02:01;1.20;;;0.90;;
3881;SDS011;1956;53.482;10.238;2022-07-03T12:07:03;6.50;;;1.97;;
3881;SDS011;1956;53.482;10.238;2022-07-03T12:12:04;2.80;;;1.27;;
3881;SDS011;1956;53.482;10.238;2022-07-03T12:17:06;2.40;;;1.13;;
3881;SDS011;1956;53.482;10.238;2022-07-03T12:22:08;4.20;;;1.43;;
3881;SDS011;1956;53.482;10.238;2022-07-03T12:27:08;2.03;;;1.40;;
3881;SDS011;1956;53.482;10.238;2022-07-03T12:32:09;2.93;;;1.50;;
3881;SDS011;1956;53.482;10.238;2022-07-03T12:37:10;2.90;;;1.30;;
3881;SDS011;1956;53.482;10.238;2022-07-03T12:42:21;2.33;;;1.37;;
3881;SDS011;1956;53.482;10.238;2022-07-03T12:47:22;2.47;;;1.37;;
3881;SDS011;1956;53.482;10.238;2022-07-03T12:52:23;4.87;;;1.10;;
3881;SDS011;1956;53.482;10.238;2022-07-03T12:57:23;2.20;;;1.17;;
3881;SDS011;1956;53.482;10.238;2022-07-03T13:02:43;4.60;;;1.00;;
3881;SDS011;1956;53.482;10.238;2022-07-03T13:07:48;1.27;;;1.17;;
3881;SDS011;1956;53.482;10.238;2022-07-03T13:12:52;31.17;;;1.83;;
3881;SDS011;1956;53.482;10.238;2022-07-03T13:17:57;1.80;;;1.20;;
3881;SDS011;1956;53.482;10.238;2022-07-03T13:23:02;2.27;;;1.20;;
3881;SDS011;1956;53.482;10.238;2022-07-03T13:28:05;4.80;;;1.30;;
3881;SDS011;1956;53.482;10.238;2022-07-03T13:33:11;2.93;;;1.13;;
3881;SDS011;1956;53.482;10.238;2022-07-03T13:38:12;2.97;;;1.23;;
3881;SDS011;1956;53.482;10.238;2022-07-03T13:43:12;2.23;;;1.30;;
3881;SDS011;1956;53.482;10.238;2022-07-03T13:48:13;1.53;;;1.17;;
3881;SDS011;1956;53.482;10.238;2022-07-03T13:53:13;2.97;;;1.40;;
3881;SDS011;1956;53.482;10.238;2022-07-03T13:58:13;8.30;;;1.03;;
3881;SDS011;1956;53.482;10.238;2022-07-03T14:03:14;3.43;;;1.00;;
3881;SDS011;1956;53.482;10.238;2022-07-03T14:08:14;1.57;;;0.80;;
3881;SDS011;1956;53.482;10.238;2022-07-03T14:13:14;3.93;;;1.20;;
3881;SDS011;1956;53.482;10.238;2022-07-03T14:18:15;1.57;;;0.90;;
3881;SDS011;1956;53.482;10.238;2022-07-03T14:23:15;2.43;;;1.20;;
3881;SDS011;1956;53.482;10.238;2022-07-03T14:28:15;1.73;;;0.90;;
3881;SDS011;1956;53.482;10.238;2022-07-03T14:33:34;1.77;;;1.00;;
3881;SDS011;1956;53.482;10.238;2022-07-03T14:38:35;1.70;;;0.90;;
3881;SDS011;1956;53.482;10.238;2022-07-03T14:43:35;1.67;;;0.93;;
3881;SDS011;1956;53.482;10.238;2022-07-03T14:48:36;5.33;;;0.93;;
3881;SDS011;1956;53.482;10.238;2022-07-03T14:53:36;1.63;;;0.73;;
3881;SDS011;1956;53.482;10.238;2022-07-03T14:58:36;2.70;;;0.97;;
3881;SDS011;1956;53.482;10.238;2022-07-03T15:03:38;4.83;;;0.73;;
3881;SDS011;1956;53.482;10.238;2022-07-03T15:08:58;9.43;;;0.80;;
3881;SDS011;1956;53.482;10.238;2022-07-03T15:14:03;2.10;;;1.00;;
3881;SDS011;1956;53.482;10.238;2022-07-03T15:19:04;2.90;;;0.90;;
3881;SDS011;1956;53.482;10.238;2022-07-03T15:24:06;2.10;;;0.97;;
3881;SDS011;1956;53.482;10.238;2022-07-03T15:29:07;3.50;;;1.30;;
3881;SDS011;1956;53.482;10.238;2022-07-03T15:34:09;2.80;;;1.00;;
3881;SDS011;1956;53.482;10.238;2022-07-03T15:39:11;1.57;;;0.93;;
3881;SDS011;1956;53.482;10.238;2022-07-03T15:44:27;0.93;;;0.77;;
3881;SDS011;1956;53.482;10.238;2022-07-03T15:49:34;1.67;;;1.00;;
3881;SDS011;1956;53.482;10.238;2022-07-03T15:54:40;2.07;;;0.90;;
3881;SDS011;1956;53.482;10.238;2022-07-03T16:00:00;1.33;;;1.23;;
3881;SDS011;1956;53.482;10.238;2022-07-03T16:05:14;2.40;;;1.00;;
3881;SDS011;1956;53.482;10.238;2022-07-03T16:10:18;8.03;;;1.80;;
3881;SDS011;1956;53.482;10.238;2022-07-03T16:15:18;1.47;;;1.23;;
3881;SDS011;1956;53.482;10.238;2022-07-03T16:20:19;2.53;;;1.60;;
3881;SDS011;1956;53.482;10.238;2022-07-03T16:25:20;1.50;;;1.10;;
3881;SDS011;1956;53.482;10.238;2022-07-03T16:30:21;2.67;;;1.27;;
3881;SDS011;1956;53.482;10.238;2022-07-03T16:35:26;1.93;;;1.10;;
3881;SDS011;1956;53.482;10.238;2022-07-03T16:40:31;1.20;;;1.10;;
3881;SDS011;1956;53.482;10.238;2022-07-03T16:45:33;6.03;;;1.20;;
3881;SDS011;1956;53.482;10.238;2022-07-03T16:50:34;9.83;;;1.40;;
3881;SDS011;1956;53.482;10.238;2022-07-03T16:55:35;5.43;;;1.30;;
3881;SDS011;1956;53.482;10.238;2022-07-03T17:00:35;2.70;;;0.97;;
3881;SDS011;1956;53.482;10.238;2022-07-03T17:05:36;4.93;;;1.03;;
3881;SDS011;1956;53.482;10.238;2022-07-03T17:10:37;3.33;;;1.03;;
3881;SDS011;1956;53.482;10.238;2022-07-03T17:15:37;6.50;;;1.50;;
3881;SDS011;1956;53.482;10.238;2022-07-03T17:20:42;6.30;;;1.37;;
3881;SDS011;1956;53.482;10.238;2022-07-03T17:25:44;4.97;;;1.30;;
3881;SDS011;1956;53.482;10.238;2022-07-03T17:30:50;4.80;;;1.47;;
3881;SDS011;1956;53.482;10.238;2022-07-03T17:35:59;2.33;;;1.30;;
3881;SDS011;1956;53.482;10.238;2022-07-03T17:41:03;1.63;;;1.37;;
3881;SDS011;1956;53.482;10.238;2022-07-03T17:46:04;1.30;;;1.13;;
3881;SDS011;1956;53.482;10.238;2022-07-03T17:51:05;2.17;;;1.30;;
3881;SDS011;1956;53.482;10.238;2022-07-03T17:56:07;4.23;;;1.30;;
3881;SDS011;1956;53.482;10.238;2022-07-03T18:01:14;5.83;;;1.37;;
3881;SDS011;1956;53.482;10.238;2022-07-03T18:06:20;1.83;;;1.33;;
3881;SDS011;1956;53.482;10.238;2022-07-03T18:11:27;6.10;;;1.27;;
3881;SDS011;1956;53.482;10.238;2022-07-03T18:16:48;3.63;;;1.40;;
3881;SDS011;1956;53.482;10.238;2022-07-03T18:21:52;1.90;;;1.43;;
3881;SDS011;1956;53.482;10.238;2022-07-03T18:26:57;3.43;;;1.37;;
3881;SDS011;1956;53.482;10.238;2022-07-03T18:32:05;2.43;;;1.33;;
3881;SDS011;1956;53.482;10.238;2022-07-03T18:37:08;3.40;;;1.50;;
3881;SDS011;1956;53.482;10.238;2022-07-03T18:42:08;1.90;;;1.73;;
3881;SDS011;1956;53.482;10.238;2022-07-03T18:47:10;4.50;;;1.90;;
3881;SDS011;1956;53.482;10.238;2022-07-03T18:52:13;2.80;;;1.60;;
3881;SDS011;1956;53.482;10.238;2022-07-03T18:57:29;2.50;;;1.17;;
3881;SDS011;1956;53.482;10.238;2022-07-03T19:02:56;2.93;;;1.57;;
3881;SDS011;1956;53.482;10.238;2022-07-03T19:08:03;3.60;;;1.83;;
3881;SDS011;1956;53.482;10.238;2022-07-03T19:13:05;2.50;;;1.43;;
3881;SDS011;1956;53.482;10.238;2022-07-03T19:18:06;2.90;;;1.73;;
3881;SDS011;1956;53.482;10.238;2022-07-03T19:23:10;8.53;;;1.90;;
3881;SDS011;1956;53.482;10.238;2022-07-03T19:28:10;3.20;;;1.90;;
3881;SDS011;1956;53.482;10.238;2022-07-03T19:33:10;3.83;;;1.70;;
3881;SDS011;1956;53.482;10.238;2022-07-03T19:38:11;2.50;;;1.53;;
3881;SDS011;1956;53.482;10.238;2022-07-03T19:43:11;3.83;;;1.67;;
3881;SDS011;1956;53.482;10.238;2022-07-03T19:48:12;2.87;;;1.37;;
3881;SDS011;1956;53.482;10.238;2022-07-03T19:53:12;3.00;;;1.80;;
3881;SDS011;1956;53.482;10.238;2022-07-03T19:58:13;2.83;;;1.90;;
3881;SDS011;1956;53.482;10.238;2022-07-03T20:03:13;2.07;;;1.60;;
3881;SDS011;1956;53.482;10.238;2022-07-03T20:08:13;3.33;;;1.90;;
3881;SDS011;1956;53.482;10.238;2022-07-03T20:13:14;2.53;;;1.90;;
3881;SDS011;1956;53.482;10.238;2022-07-03T20:18:14;4.47;;;1.80;;
3881;SDS011;1956;53.482;10.238;2022-07-03T20:23:16;2.60;;;2.00;;
3881;SDS011;1956;53.482;10.238;2022-07-03T20:28:16;2.90;;;2.20;;
3881;SDS011;1956;53.482;10.238;2022-07-03T20:33:16;3.33;;;2.63;;
3881;SDS011;1956;53.482;10.238;2022-07-03T20:38:17;2.07;;;1.93;;
3881;SDS011;1956;53.482;10.238;2022-07-03T20:43:17;4.37;;;2.13;;
3881;SDS011;1956;53.482;10.238;2022-07-03T20:48:18;2.27;;;1.90;;
3881;SDS011;1956;53.482;10.238;2022-07-03T20:53:18;2.30;;;2.10;;
3881;SDS011;1956;53.482;10.238;2022-07-03T20:58:19;2.20;;;1.97;;
3881;SDS011;1956;53.482;10.238;2022-07-03T21:03:19;2.97;;;2.50;;
3881;SDS011;1956;53.482;10.238;2022-07-03T21:08:20;2.40;;;2.20;;
3881;SDS011;1956;53.482;10.238;2022-07-03T21:13:25;4.43;;;1.90;;
3881;SDS011;1956;53.482;10.238;2022-07-03T21:18:26;4.47;;;2.13;;
3881;SDS011;1956;53.482;10.238;2022-07-03T21:23:26;3.60;;;2.47;;
3881;SDS011;1956;53.482;10.238;2022-07-03T21:28:27;3.33;;;2.60;;
3881;SDS011;1956;53.482;10.238;2022-07-03T21:33:27;2.57;;;2.37;;
3881;SDS011;1956;53.482;10.238;2022-07-03T21:38:28;2.43;;;2.23;;
3881;SDS011;1956;53.482;10.238;2022-07-03T21:43:28;3.63;;;2.77;;
3881;SDS011;1956;53.482;10.238;2022-07-03T21:48:29;2.50;;;2.30;;
3881;SDS011;1956;53.482;10.238;2022-07-03T21:53:29;4.17;;;2.20;;
3881;SDS011;1956;53.482;10.238;2022-07-03T21:58:30;3.57;;;2.30;;
3881;SDS011;1956;53.482;10.238;2022-07-03T22:03:30;3.43;;;2.20;;
3881;SDS011;1956;53.482;10.238;2022-07-03T22:08:31;4.07;;;2.27;;
3881;SDS011;1956;53.482;10.238;2022-07-03T22:13:31;2.07;;;1.87;;
3881;SDS011;1956;53.482;10.238;2022-07-03T22:18:31;3.70;;;2.37;;
3881;SDS011;1956;53.482;10.238;2022-07-03T22:23:32;3.73;;;2.67;;
3881;SDS011;1956;53.482;10.238;2022-07-03T22:28:32;4.00;;;2.77;;
3881;SDS011;1956;53.482;10.238;2022-07-03T22:33:33;4.30;;;2.40;;
3881;SDS011;1956;53.482;10.238;2022-07-03T22:38:33;3.63;;;2.00;;
3881;SDS011;1956;53.482;10.238;2022-07-03T22:43:33;5.20;;;3.03;;
3881;SDS011;1956;53.482;10.238;2022-07-03T22:48:34;4.47;;;3.00;;
3881;SDS011;1956;53.482;10.238;2022-07-03T22:53:34;8.97;;;3.07;;
3881;SDS011;1956;53.482;10.238;2022-07-03T22:58:34;5.03;;;2.50;;
3881;SDS011;1956;53.482;10.238;2022-07-03T23:03:35;4.00;;;2.27;;
3881;SDS011;1956;53.482;10.238;2022-07-03T23:08:35;3.00;;;2.17;;
3881;SDS011;1956;53.482;10.238;2022-07-03T23:13:36;3.00;;;2.40;;
3881;SDS011;1956;53.482;10.238;2022-07-03T23:18:37;6.27;;;2.63;;
3881;SDS011;1956;53.482;10.238;2022-07-03T23:23:37;7.60;;;2.77;;
3881;SDS011;1956;53.482;10.238;2022-07-03T23:28:38;2.93;;;2.33;;
3881;SDS011;1956;53.482;10.238;2022-07-03T23:33:38;7.50;;;2.80;;
3881;SDS011;1956;53.482;10.238;2022-07-03T23:38:39;2.73;;;2.37;;
3881;SDS011;1956;53.482;10.238;2022-07-03T23:43:39;4.13;;;2.03;;
3881;SDS011;1956;53.482;10.238;2022-07-03T23:48:39;6.20;;;2.33;;
3881;SDS011;1956;53.482;10.238;2022-07-03T23:53:59;5.23;;;2.40;;
3881;SDS011;1956;53.482;10.238;2022-07-03T23:58:59;4.90;;;2.80;;
